createdAt,value
2018-06-10T00:08:13.263Z,23.5
2018-06-10T00:25:04.393Z,23.5
2018-06-10T00:41:55.320Z,23.5
2018-06-10T00:58:46.385Z,23.5
2018-06-10T01:15:37.123Z,23.5
2018-06-10T01:32:27.815Z,23.2
2018-06-10T01:49:18.228Z,22.9
2018-06-10T02:06:08.565Z,22.9
2018-06-10T02:22:58.893Z,22.9
2018-06-10T02:39:49.121Z,22.9
2018-06-10T02:56:39.254Z,22.9
2018-06-10T03:13:29.386Z,22.6
2018-06-10T03:30:19.347Z,22.6
2018-06-10T03:47:09.149Z,21.9
2018-06-10T04:00:36.282Z,21.3
2018-06-10T04:10:41.187Z,21.0
2018-06-10T04:27:29.071Z,20.6
2018-06-10T04:40:54.764Z,20.0
2018-06-10T04:57:41.673Z,20.0
2018-06-10T05:14:28.501Z,19.7
2018-06-10T05:31:15.085Z,20.3
2018-06-10T05:44:40.943Z,21.0
2018-06-10T05:54:45.936Z,21.6
2018-06-10T06:11:34.819Z,21.9
2018-06-10T06:28:24.085Z,22.2
2018-06-10T06:45:13.739Z,22.6
2018-06-10T07:02:03.216Z,22.6
2018-06-10T07:18:52.980Z,22.6
2018-06-10T07:35:43.284Z,22.6
2018-06-10T07:52:33.476Z,22.6
2018-06-10T08:09:23.713Z,22.6
2018-06-10T08:26:13.896Z,22.9
2018-06-10T08:43:04.600Z,23.2
2018-06-10T08:59:55.240Z,23.2
2018-06-10T09:16:45.927Z,23.2
2018-06-10T09:33:36.858Z,23.5
2018-06-10T09:50:28.296Z,23.8
2018-06-10T10:07:19.202Z,23.5
2018-06-10T10:24:10.379Z,23.5
2018-06-10T10:41:01.047Z,23.5
2018-06-10T10:57:52.186Z,23.5
2018-06-10T11:14:43.278Z,23.5
2018-06-10T11:31:34.528Z,23.8
2018-06-10T11:48:25.834Z,23.8
2018-06-10T12:05:17.191Z,23.8
2018-06-10T12:22:08.373Z,23.8
2018-06-10T12:38:59.919Z,24.2
2018-06-10T12:55:51.715Z,24.2
2018-06-10T13:12:43.814Z,24.5
2018-06-10T13:29:36.043Z,24.5
2018-06-10T13:46:28.545Z,24.5
2018-06-10T14:03:20.718Z,24.5
2018-06-10T14:20:13.151Z,24.8
2018-06-10T14:37:05.794Z,24.8
2018-06-10T14:53:58.172Z,24.8
2018-06-10T15:10:51.504Z,25.1
2018-06-10T15:27:44.094Z,25.1
2018-06-10T15:44:37.060Z,25.1
2018-06-10T16:01:29.939Z,25.1
2018-06-10T16:18:22.774Z,24.8
2018-06-10T16:35:15.498Z,24.8
2018-06-10T16:52:08.248Z,24.8
2018-06-10T17:09:00.890Z,24.8
2018-06-10T17:25:53.686Z,24.8
2018-06-10T17:42:46.126Z,24.5
2018-06-10T17:59:38.565Z,24.5
2018-06-10T18:16:30.796Z,24.2
2018-06-10T18:33:22.805Z,24.2
2018-06-10T18:50:14.831Z,24.2
2018-06-10T19:07:06.623Z,23.8
2018-06-10T19:23:58.118Z,23.5
2018-06-10T19:40:49.626Z,23.5
2018-06-10T19:55:59.619Z,22.9
2018-06-10T20:01:02.814Z,22.2
2018-06-10T20:12:49.515Z,21.6
2018-06-10T20:26:16.692Z,21.0
2018-06-10T20:43:04.786Z,21.0
2018-06-10T20:59:53.332Z,21.3
2018-06-10T21:16:41.880Z,21.0
2018-06-10T21:33:30.317Z,21.0
2018-06-10T21:50:18.685Z,21.0
2018-06-10T22:07:06.325Z,20.6
2018-06-10T22:17:10.950Z,21.3
2018-06-10T22:33:58.920Z,21.3
2018-06-10T22:50:46.938Z,21.3
2018-06-10T23:07:34.976Z,21.3
2018-06-10T23:24:23.185Z,21.3
2018-06-10T23:41:11.309Z,21.3
2018-06-10T23:57:59.652Z,21.3
